Time;durP1;ratioP1;P1;durP2;ratioP2;P2;SDS_P1;SDS_P2;PMS_P1;PMS_P2;Temp;Humidity;BMP_temperature;BMP_pressure;BME280_temperature;BME280_humidity;BME280_pressure;Samples;Min_cycle;Max_cycle;Signal;HPM_P1;HPM_P2
2020/12/27 00:00:23;;;;;;;4.83;4.43;;;2.70;99.90;;;;;;5090963;28;20211;-79
2020/12/27 00:02:50;;;;;;;4.63;4.23;;;2.70;99.90;;;;;;5090467;28;20210;-77
2020/12/27 00:05:16;;;;;;;4.37;3.97;;;2.80;99.90;;;;;;5090138;28;20210;-77
2020/12/27 00:07:44;;;;;;;4.70;4.30;;;2.80;99.90;;;;;;5091123;28;20215;-77
2020/12/27 00:10:10;;;;;;;4.60;4.23;;;2.80;99.90;;;;;;5090863;28;20238;-78
2020/12/27 00:12:37;;;;;;;4.93;4.43;;;2.80;99.90;;;;;;5091207;28;20214;-78
2020/12/27 00:15:04;;;;;;;5.33;4.33;;;2.80;99.90;;;;;;5091225;28;20252;-78
2020/12/27 00:17:30;;;;;;;4.60;4.20;;;2.80;99.90;;;;;;5090953;28;20210;-78
2020/12/27 00:19:57;;;;;;;4.90;4.50;;;2.80;99.90;;;;;;5090198;28;20715;-77
2020/12/27 00:22:24;;;;;;;4.50;4.10;;;2.70;99.90;;;;;;5090830;28;20214;-77
2020/12/27 00:24:52;;;;;;;4.90;4.43;;;2.70;99.90;;;;;;5090856;28;20206;-77
2020/12/27 00:27:18;;;;;;;4.33;4.03;;;2.70;99.90;;;;;;5090748;28;20289;-77
2020/12/27 00:29:45;;;;;;;4.57;3.97;;;2.60;99.90;;;;;;5090539;28;20318;-81
2020/12/27 00:32:12;;;;;;;4.13;3.73;;;2.70;99.90;;;;;;5090367;28;20583;-77
2020/12/27 00:34:38;;;;;;;4.97;4.00;;;2.70;99.90;;;;;;5089841;28;20205;-77
2020/12/27 00:37:04;;;;;;;4.63;4.17;;;2.70;99.90;;;;;;5089889;28;20312;-78
2020/12/27 00:39:31;;;;;;;4.67;4.27;;;2.70;99.90;;;;;;5098087;28;20212;-77
2020/12/27 00:42:02;;;;;;;5.13;4.63;;;2.60;99.90;;;;;;5110761;27;20246;-77
2020/12/27 00:44:28;;;;;;;4.73;4.33;;;2.60;99.90;;;;;;5110587;28;20202;-78
2020/12/27 00:46:55;;;;;;;4.37;4.07;;;2.60;99.90;;;;;;5111035;28;20213;-77
2020/12/27 00:49:22;;;;;;;4.47;4.00;;;2.60;99.90;;;;;;5110291;28;20225;-77
2020/12/27 00:51:50;;;;;;;4.63;3.83;;;2.60;99.90;;;;;;5109999;28;20224;-77
2020/12/27 00:54:16;;;;;;;5.10;4.57;;;2.60;99.90;;;;;;5109798;28;20226;-78
2020/12/27 00:56:46;;;;;;;4.23;3.83;;;2.60;99.90;;;;;;5110776;28;20206;-78
2020/12/27 00:59:13;;;;;;;4.20;3.83;;;2.60;99.90;;;;;;5110624;28;20198;-78
2020/12/27 01:01:40;;;;;;;4.93;4.40;;;2.60;99.90;;;;;;5110357;28;20254;-78
2020/12/27 01:04:06;;;;;;;4.03;3.63;;;2.60;99.90;;;;;;5110300;28;20213;-78
2020/12/27 01:06:34;;;;;;;4.77;4.37;;;2.60;99.90;;;;;;5109605;27;20198;-79
2020/12/27 01:09:00;;;;;;;4.37;3.97;;;2.60;99.90;;;;;;5109908;28;20312;-78
2020/12/27 01:11:27;;;;;;;4.17;3.87;;;2.60;99.90;;;;;;5109586;28;20216;-78
2020/12/27 01:13:53;;;;;;;4.57;4.07;;;2.60;99.90;;;;;;5110105;28;20294;-77
2020/12/27 01:16:21;;;;;;;5.10;4.53;;;2.50;99.90;;;;;;5110206;28;20277;-78
2020/12/27 01:18:48;;;;;;;4.53;4.13;;;2.60;99.90;;;;;;5109975;28;20206;-78
2020/12/27 01:21:22;;;;;;;4.07;3.77;;;2.50;99.90;;;;;;5110232;28;20306;-78
2020/12/27 01:23:48;;;;;;;4.57;4.13;;;2.50;99.90;;;;;;5107212;28;20202;-78
2020/12/27 01:26:15;;;;;;;4.20;3.80;;;2.60;99.90;;;;;;5096311;28;20317;-77
2020/12/27 01:28:41;;;;;;;4.40;3.67;;;2.50;99.90;;;;;;5093740;28;20226;-81
2020/12/27 01:31:07;;;;;;;4.43;3.90;;;2.50;99.90;;;;;;5089827;28;20215;-81
2020/12/27 01:33:35;;;;;;;4.57;4.17;;;2.50;99.90;;;;;;5100214;28;20296;-81
2020/12/27 01:36:01;;;;;;;4.60;4.20;;;2.50;99.90;;;;;;5089846;28;20202;-81
2020/12/27 01:38:27;;;;;;;4.10;3.80;;;2.50;99.90;;;;;;5092688;28;20264;-80
2020/12/27 01:41:04;;;;;;;4.03;3.53;;;2.50;99.90;;;;;;5109133;28;20304;-81
2020/12/27 01:43:31;;;;;;;4.30;3.90;;;2.50;99.90;;;;;;5110067;28;20204;-81
2020/12/27 01:45:57;;;;;;;4.60;3.70;;;2.50;99.90;;;;;;5109165;28;20230;-81
2020/12/27 01:48:23;;;;;;;5.30;4.13;;;2.50;99.90;;;;;;5109109;28;20230;-81
2020/12/27 01:50:52;;;;;;;4.50;4.10;;;2.50;99.90;;;;;;5109573;28;20217;-80
2020/12/27 01:53:18;;;;;;;6.37;4.37;;;2.50;99.90;;;;;;5108840;28;20210;-79
2020/12/27 01:55:44;;;;;;;4.33;3.93;;;2.50;99.90;;;;;;5109445;28;20281;-78
2020/12/27 01:58:19;;;;;;;4.33;3.90;;;2.50;99.90;;;;;;5109206;28;20210;-77
2020/12/27 02:00:46;;;;;;;4.00;3.73;;;2.50;99.90;;;;;;5109362;28;20650;-78
2020/12/27 02:03:13;;;;;;;3.97;3.67;;;2.40;99.90;;;;;;5109268;28;20205;-79
2020/12/27 02:05:42;;;;;;;3.73;3.43;;;2.40;99.90;;;;;;5108959;28;20207;-80
2020/12/27 02:08:11;;;;;;;4.50;3.73;;;2.40;99.90;;;;;;5108603;28;20206;-79
2020/12/27 02:10:37;;;;;;;3.93;3.57;;;2.50;99.90;;;;;;5109123;28;20623;-80
2020/12/27 02:13:03;;;;;;;4.27;3.67;;;2.40;99.90;;;;;;5108942;28;20295;-80
2020/12/27 02:15:31;;;;;;;5.03;3.80;;;2.40;99.90;;;;;;5109024;28;20704;-80
2020/12/27 02:17:57;;;;;;;4.10;3.70;;;2.40;99.90;;;;;;5109280;28;20204;-77
2020/12/27 02:20:23;;;;;;;4.23;3.60;;;2.40;99.90;;;;;;5108792;28;20220;-76
2020/12/27 02:22:50;;;;;;;4.83;3.40;;;2.40;99.90;;;;;;5108944;28;20237;-78
2020/12/27 02:25:17;;;;;;;4.40;3.97;;;2.40;99.90;;;;;;5108584;28;20692;-79
2020/12/27 02:27:44;;;;;;;3.60;3.40;;;2.50;99.90;;;;;;5108750;28;20214;-78
2020/12/27 02:30:10;;;;;;;4.07;3.60;;;2.40;99.90;;;;;;5108845;28;20237;-78
2020/12/27 02:32:37;;;;;;;4.10;3.70;;;2.40;99.90;;;;;;5108875;28;20210;-78
2020/12/27 02:35:04;;;;;;;3.93;3.53;;;2.40;99.90;;;;;;5108555;28;20254;-79
2020/12/27 02:37:31;;;;;;;3.83;3.53;;;2.40;99.90;;;;;;5108898;28;20209;-78
2020/12/27 02:39:57;;;;;;;4.80;3.73;;;2.40;99.90;;;;;;5108811;28;20297;-78
2020/12/27 02:42:24;;;;;;;3.90;3.40;;;2.40;99.90;;;;;;5108716;28;20992;-77
2020/12/27 02:45:10;;;;;;;4.23;3.83;;;2.40;99.90;;;;;;5108418;28;20277;-78
2020/12/27 02:47:39;;;;;;;3.90;3.50;;;2.40;99.90;;;;;;5108477;28;20186;-78
2020/12/27 02:50:10;;;;;;;3.80;3.40;;;2.50;99.90;;;;;;5108350;28;20624;-75
2020/12/27 02:52:38;;;;;;;4.23;3.83;;;2.40;99.90;;;;;;5108642;28;20562;-75
2020/12/27 02:55:05;;;;;;;3.77;3.47;;;2.40;99.90;;;;;;5108161;28;20229;-75
2020/12/27 02:57:32;;;;;;;3.90;3.60;;;2.40;99.90;;;;;;5108724;28;20638;-75
2020/12/27 02:59:58;;;;;;;5.37;3.87;;;2.40;99.90;;;;;;5111935;28;20214;-76
2020/12/27 03:02:24;;;;;;;3.90;3.60;;;2.40;99.90;;;;;;5112653;28;20519;-76
2020/12/27 03:04:51;;;;;;;3.80;3.40;;;2.40;99.90;;;;;;5112708;28;20258;-76
2020/12/27 03:07:17;;;;;;;4.97;3.63;;;2.40;99.90;;;;;;5112454;28;20254;-76
2020/12/27 03:09:43;;;;;;;3.57;3.27;;;2.40;99.90;;;;;;5112391;28;20307;-75
2020/12/27 03:12:10;;;;;;;3.43;3.07;;;2.50;99.90;;;;;;5112195;27;20202;-78
2020/12/27 03:14:37;;;;;;;3.30;3.10;;;2.50;99.90;;;;;;5112289;28;20208;-80
2020/12/27 03:17:03;;;;;;;3.43;3.17;;;2.50;99.90;;;;;;5112937;27;20294;-80
2020/12/27 03:19:30;;;;;;;3.47;3.17;;;2.50;99.90;;;;;;5111938;28;20254;-76
2020/12/27 03:21:56;;;;;;;2.93;2.63;;;2.50;99.90;;;;;;5112033;27;20241;-76
2020/12/27 03:24:22;;;;;;;2.50;2.37;;;2.40;99.90;;;;;;5112039;28;20208;-76
2020/12/27 03:26:49;;;;;;;4.00;3.13;;;2.50;99.90;;;;;;5112364;28;20712;-76
2020/12/27 03:29:15;;;;;;;2.90;2.70;;;2.40;99.90;;;;;;5111675;28;20229;-76
2020/12/27 03:31:42;;;;;;;3.20;2.90;;;2.40;99.90;;;;;;5111958;27;20228;-76
2020/12/27 03:34:08;;;;;;;3.83;2.83;;;2.50;99.90;;;;;;5111881;27;20285;-77
2020/12/27 03:36:35;;;;;;;3.27;2.63;;;2.50;99.90;;;;;;5112232;28;20277;-77
2020/12/27 03:39:01;;;;;;;2.63;2.43;;;2.50;99.90;;;;;;5111743;27;20237;-76
2020/12/27 03:41:27;;;;;;;3.20;2.90;;;2.40;99.90;;;;;;5111606;28;20202;-76
2020/12/27 03:43:54;;;;;;;2.50;2.40;;;2.40;99.90;;;;;;5111771;28;21003;-76
2020/12/27 03:46:20;;;;;;;2.80;2.60;;;2.40;99.90;;;;;;5111617;28;20210;-76
2020/12/27 03:48:47;;;;;;;3.93;2.83;;;2.50;99.90;;;;;;5111619;28;20692;-76
2020/12/27 03:51:14;;;;;;;2.90;2.70;;;2.40;99.90;;;;;;5111733;28;20206;-76
2020/12/27 03:53:40;;;;;;;2.90;2.70;;;2.40;99.90;;;;;;5111644;28;20327;-77
2020/12/27 03:56:07;;;;;;;2.60;2.40;;;2.40;99.90;;;;;;5111862;28;20304;-79
2020/12/27 03:58:33;;;;;;;2.50;2.30;;;2.40;99.90;;;;;;5111461;28;20699;-79
2020/12/27 04:00:59;;;;;;;3.47;2.70;;;2.40;99.90;;;;;;5111628;28;20205;-78
2020/12/27 04:03:26;;;;;;;3.33;2.67;;;2.40;99.90;;;;;;5111443;27;20202;-78
2020/12/27 04:05:53;;;;;;;2.90;2.60;;;2.40;99.90;;;;;;5111622;28;20206;-78
2020/12/27 04:08:19;;;;;;;2.70;2.50;;;2.40;99.90;;;;;;5111170;28;20296;-77
2020/12/27 04:10:46;;;;;;;2.87;2.60;;;2.40;99.90;;;;;;5111090;28;20292;-77
2020/12/27 04:13:12;;;;;;;3.00;2.80;;;2.40;99.90;;;;;;5111007;28;20545;-78
2020/12/27 04:15:38;;;;;;;3.10;2.80;;;2.40;99.90;;;;;;5111001;28;20711;-77
2020/12/27 04:18:05;;;;;;;2.83;2.63;;;2.40;99.90;;;;;;5111170;28;20267;-80
2020/12/27 04:20:31;;;;;;;3.40;2.47;;;2.40;99.90;;;;;;5111390;28;20225;-80
2020/12/27 04:22:58;;;;;;;2.93;2.70;;;2.40;99.90;;;;;;5111088;28;20337;-79
2020/12/27 04:25:25;;;;;;;3.40;2.70;;;2.40;99.90;;;;;;5111121;28;20297;-80
2020/12/27 04:27:51;;;;;;;3.77;2.67;;;2.40;99.90;;;;;;5111590;28;20249;-79
2020/12/27 04:30:18;;;;;;;3.80;3.23;;;2.40;99.90;;;;;;5110797;28;20692;-80
2020/12/27 04:32:44;;;;;;;2.90;2.70;;;2.40;99.90;;;;;;5111057;28;20206;-76
2020/12/27 04:35:11;;;;;;;3.93;3.63;;;2.50;99.90;;;;;;5110740;28;20312;-76
2020/12/27 04:37:37;;;;;;;3.37;3.10;;;2.40;99.90;;;;;;5110853;28;20573;-76
2020/12/27 04:40:05;;;;;;;3.40;3.10;;;2.40;99.90;;;;;;5110406;28;20305;-76
2020/12/27 04:42:31;;;;;;;2.80;2.60;;;2.40;99.90;;;;;;5110444;28;20301;-77
2020/12/27 04:44:58;;;;;;;4.27;2.90;;;2.40;99.90;;;;;;5110277;28;20237;-76
2020/12/27 04:47:25;;;;;;;3.47;3.17;;;2.40;99.90;;;;;;5110246;27;20213;-77
2020/12/27 04:49:52;;;;;;;4.57;3.73;;;2.40;99.90;;;;;;5110460;28;20274;-76
2020/12/27 04:52:21;;;;;;;3.40;3.10;;;2.40;99.90;;;;;;5110222;28;20212;-76
2020/12/27 04:54:49;;;;;;;3.40;3.03;;;2.40;99.90;;;;;;5110190;28;20237;-76
2020/12/27 04:57:18;;;;;;;3.93;3.13;;;2.40;99.90;;;;;;5110529;28;20202;-76
2020/12/27 04:59:47;;;;;;;3.43;3.10;;;2.40;99.90;;;;;;5110482;28;20202;-76
2020/12/27 05:02:14;;;;;;;3.60;3.30;;;2.40;99.90;;;;;;5110414;28;20198;-75
2020/12/27 05:04:42;;;;;;;4.37;2.90;;;2.40;99.90;;;;;;5110367;28;20202;-75
2020/12/27 05:07:09;;;;;;;3.80;3.50;;;2.40;99.90;;;;;;5110061;28;20242;-75
2020/12/27 05:09:35;;;;;;;4.60;3.50;;;2.40;99.90;;;;;;5110063;28;20230;-82
2020/12/27 05:12:01;;;;;;;4.20;3.30;;;2.40;99.90;;;;;;5110486;28;20224;-80
2020/12/27 05:14:29;;;;;;;3.83;3.47;;;2.40;99.90;;;;;;5110130;28;20209;-81
2020/12/27 05:16:58;;;;;;;4.67;3.30;;;2.40;99.90;;;;;;5110270;28;20221;-81
2020/12/27 05:19:25;;;;;;;3.97;3.60;;;2.30;99.90;;;;;;5110110;28;20229;-80
2020/12/27 05:21:54;;;;;;;5.87;3.83;;;2.30;99.90;;;;;;5109035;28;20293;-80
2020/12/27 05:24:21;;;;;;;4.13;3.77;;;2.30;99.90;;;;;;5109346;28;20285;-79
2020/12/27 05:26:47;;;;;;;4.03;3.73;;;2.30;99.90;;;;;;5109854;28;20202;-78
2020/12/27 05:29:31;;;;;;;5.67;3.87;;;2.30;99.90;;;;;;5110051;28;20306;-80
2020/12/27 05:31:59;;;;;;;3.93;3.30;;;2.30;99.90;;;;;;5110041;28;20194;-79
2020/12/27 05:34:27;;;;;;;3.70;3.40;;;2.30;99.90;;;;;;5109607;28;20206;-79
2020/12/27 05:36:56;;;;;;;3.87;3.43;;;2.30;99.90;;;;;;5109363;28;20206;-78
2020/12/27 05:39:23;;;;;;;3.33;3.03;;;2.30;99.90;;;;;;5109567;28;20208;-79
2020/12/27 05:41:50;;;;;;;3.83;3.40;;;2.30;99.90;;;;;;5109564;28;20207;-79
2020/12/27 05:44:19;;;;;;;4.10;3.70;;;2.30;99.90;;;;;;5109639;27;20320;-77
2020/12/27 05:46:47;;;;;;;3.87;3.50;;;2.20;99.90;;;;;;5109380;28;20202;-77
2020/12/27 05:49:13;;;;;;;4.50;3.90;;;2.20;99.90;;;;;;5109321;28;20237;-79
2020/12/27 05:51:50;;;;;;;3.70;3.30;;;2.20;99.90;;;;;;5109501;28;20270;-77
2020/12/27 05:54:27;;;;;;;4.07;3.17;;;2.20;99.90;;;;;;5108845;28;21034;-77
2020/12/27 05:56:57;;;;;;;3.90;3.60;;;2.20;99.90;;;;;;5109598;28;20566;-78
2020/12/27 05:59:28;;;;;;;3.90;3.60;;;2.20;99.90;;;;;;5109759;28;20221;-79
2020/12/27 06:01:57;;;;;;;4.30;3.90;;;2.20;99.90;;;;;;5109363;28;20202;-78
2020/12/27 06:05:07;;;;;;;4.57;4.10;;;2.10;99.90;;;;;;5109236;28;20210;-78
2020/12/27 06:07:35;;;;;;;3.90;3.60;;;2.10;99.90;;;;;;5109124;28;20193;-78
2020/12/27 06:10:05;;;;;;;3.57;3.27;;;2.10;99.90;;;;;;5108340;28;20236;-77
2020/12/27 06:13:07;;;;;;;4.33;3.50;;;2.10;99.90;;;;;;5108556;28;20859;-78
2020/12/27 06:15:36;;;;;;;3.93;3.60;;;2.10;99.90;;;;;;5085543;28;20229;-78
2020/12/27 06:18:11;;;;;;;3.57;3.23;;;2.10;99.90;;;;;;5108952;28;20668;-78
2020/12/27 06:20:40;;;;;;;3.80;3.50;;;2.10;99.90;;;;;;5109084;28;20270;-77
2020/12/27 06:23:07;;;;;;;3.80;3.50;;;2.10;99.90;;;;;;5108902;28;20198;-77
2020/12/27 06:25:34;;;;;;;3.87;3.57;;;2.10;99.90;;;;;;5108710;28;20301;-77
2020/12/27 06:28:01;;;;;;;4.13;3.73;;;2.10;99.90;;;;;;5108744;28;20202;-78
2020/12/27 06:30:31;;;;;;;6.13;3.47;;;2.10;99.90;;;;;;5108977;28;20271;-80
2020/12/27 06:33:04;;;;;;;3.47;3.17;;;2.10;99.90;;;;;;5108572;28;20223;-80
2020/12/27 06:35:35;;;;;;;4.07;3.43;;;2.10;99.90;;;;;;5108778;28;20196;-80
2020/12/27 06:38:12;;;;;;;4.37;3.57;;;2.10;99.90;;;;;;5109025;28;20197;-81
2020/12/27 06:40:39;;;;;;;4.20;3.90;;;2.10;99.90;;;;;;5108818;28;20639;-77
2020/12/27 06:43:20;;;;;;;3.90;3.53;;;2.10;99.90;;;;;;5108819;28;20202;-80
2020/12/27 06:45:47;;;;;;;4.00;3.47;;;2.10;99.90;;;;;;5107983;28;20219;-80
2020/12/27 06:48:31;;;;;;;3.80;3.50;;;2.10;99.90;;;;;;5108522;28;20208;-79
2020/12/27 06:50:58;;;;;;;3.60;3.30;;;2.10;99.90;;;;;;5108542;28;20218;-78
2020/12/27 06:53:43;;;;;;;3.47;3.27;;;2.10;99.90;;;;;;5095874;28;20232;-78
2020/12/27 06:56:14;;;;;;;3.60;3.30;;;2.10;99.90;;;;;;5087172;28;20214;-77
2020/12/27 06:58:41;;;;;;;4.03;3.60;;;2.10;99.90;;;;;;5087317;28;20663;-78
2020/12/27 07:01:12;;;;;;;3.93;3.40;;;2.10;99.90;;;;;;5088212;28;20212;-81
2020/12/27 07:03:39;;;;;;;3.50;3.20;;;2.10;99.90;;;;;;5088114;28;20207;-78
2020/12/27 07:06:23;;;;;;;3.70;3.30;;;2.10;99.90;;;;;;5087417;28;20718;-78
2020/12/27 07:08:50;;;;;;;5.20;3.37;;;2.10;99.90;;;;;;5087942;28;20193;-79
2020/12/27 07:11:19;;;;;;;4.47;3.10;;;2.10;99.90;;;;;;5087843;28;20203;-78
2020/12/27 07:13:47;;;;;;;3.37;3.07;;;2.10;99.90;;;;;;5096440;28;20228;-79
2020/12/27 07:16:15;;;;;;;4.57;3.20;;;2.10;99.90;;;;;;5087835;28;20223;-78
2020/12/27 07:18:43;;;;;;;3.43;2.90;;;2.10;99.90;;;;;;5088231;28;20207;-79
2020/12/27 07:21:16;;;;;;;5.10;3.27;;;2.10;99.90;;;;;;5088018;28;20214;-78
2020/12/27 07:23:48;;;;;;;3.97;3.00;;;2.10;99.90;;;;;;5088006;28;20195;-78
2020/12/27 07:26:15;;;;;;;3.23;3.00;;;2.10;99.90;;;;;;5087932;28;20803;-79
2020/12/27 07:28:44;;;;;;;3.67;2.67;;;2.10;99.90;;;;;;5102874;28;20208;-79
2020/12/27 07:31:18;;;;;;;2.50;2.30;;;2.10;99.90;;;;;;5106177;28;20351;-79
2020/12/27 07:33:46;;;;;;;2.67;2.47;;;2.10;99.90;;;;;;5102917;28;20213;-78
2020/12/27 07:36:14;;;;;;;3.80;2.90;;;2.10;99.90;;;;;;5092307;28;20229;-79
2020/12/27 07:38:59;;;;;;;2.80;2.57;;;2.10;99.90;;;;;;5100941;28;20198;-79
2020/12/27 07:41:27;;;;;;;2.90;2.40;;;2.10;99.90;;;;;;5106071;28;20543;-78
2020/12/27 07:43:55;;;;;;;2.83;2.50;;;2.10;99.90;;;;;;5106464;28;20214;-78
2020/12/27 07:46:22;;;;;;;2.47;2.27;;;2.10;99.90;;;;;;5109605;28;20252;-78
2020/12/27 07:48:49;;;;;;;3.00;2.47;;;2.10;99.90;;;;;;5109907;28;20294;-79
2020/12/27 07:51:17;;;;;;;3.93;2.47;;;2.20;99.90;;;;;;5108630;28;20741;-79
2020/12/27 07:53:46;;;;;;;10.23;9.30;;;2.20;99.90;;;;;;5095795;28;20226;-85
2020/12/27 07:56:17;;;;;;;3.80;3.37;;;2.20;99.90;;;;;;5100068;27;20198;-82
2020/12/27 07:58:51;;;;;;;2.20;2.10;;;2.20;99.90;;;;;;5092367;28;20203;-77
2020/12/27 08:01:22;;;;;;;2.20;2.10;;;2.20;99.90;;;;;;5090817;28;20234;-84
2020/12/27 08:03:53;;;;;;;2.17;2.07;;;2.20;99.90;;;;;;5100319;28;20207;-83
2020/12/27 08:06:20;;;;;;;2.23;2.03;;;2.20;99.90;;;;;;5091624;28;20671;-83
2020/12/27 08:08:47;;;;;;;1.97;1.77;;;2.20;99.90;;;;;;5091353;28;20597;-85
2020/12/27 08:11:24;;;;;;;2.13;2.00;;;2.20;99.90;;;;;;5091280;28;20195;-84
2020/12/27 08:13:52;;;;;;;3.07;2.20;;;2.20;99.90;;;;;;5091648;28;20194;-84
2020/12/27 08:16:18;;;;;;;3.10;1.87;;;2.20;99.90;;;;;;5091231;28;20795;-84
2020/12/27 08:18:44;;;;;;;3.87;2.10;;;2.10;99.90;;;;;;5091779;28;20217;-85
2020/12/27 08:21:11;;;;;;;2.03;1.83;;;2.10;99.90;;;;;;5091247;28;20592;-84
2020/12/27 08:23:37;;;;;;;2.20;1.73;;;2.10;99.90;;;;;;5091493;28;20191;-85
2020/12/27 08:26:03;;;;;;;1.97;1.87;;;2.10;99.90;;;;;;5091134;28;20278;-84
2020/12/27 08:28:35;;;;;;;1.97;1.87;;;2.10;99.90;;;;;;5091443;28;20191;-84
2020/12/27 08:31:01;;;;;;;2.27;1.80;;;2.10;99.90;;;;;;5090230;28;20256;-81
2020/12/27 08:33:28;;;;;;;1.87;1.70;;;2.10;99.90;;;;;;5089868;28;20222;-81
2020/12/27 08:35:56;;;;;;;2.20;1.70;;;2.10;99.90;;;;;;5089296;28;20282;-79
2020/12/27 08:38:29;;;;;;;2.37;2.17;;;2.10;99.90;;;;;;5095371;28;20228;-80
2020/12/27 08:41:06;;;;;;;3.53;1.70;;;2.10;99.90;;;;;;5095416;28;20205;-83
2020/12/27 08:43:58;;;;;;;2.67;1.60;;;2.10;99.90;;;;;;5090768;28;20195;-83
2020/12/27 08:46:30;;;;;;;1.73;1.63;;;2.10;99.90;;;;;;5099621;28;20214;-84
2020/12/27 08:49:02;;;;;;;1.87;1.77;;;2.20;99.90;;;;;;5089756;28;20289;-83
2020/12/27 08:51:36;;;;;;;1.93;1.70;;;2.20;99.90;;;;;;5090279;28;20195;-83
2020/12/27 08:54:05;;;;;;;2.80;1.70;;;2.20;99.90;;;;;;5090318;28;20601;-83
2020/12/27 08:56:32;;;;;;;1.80;1.70;;;2.20;99.90;;;;;;5091124;28;20527;-83
2020/12/27 08:58:59;;;;;;;3.13;1.90;;;2.20;99.90;;;;;;5090745;28;20202;-83
2020/12/27 09:01:26;;;;;;;1.87;1.77;;;2.20;99.90;;;;;;5090796;28;20748;-83
2020/12/27 09:03:52;;;;;;;1.97;1.87;;;2.20;99.90;;;;;;5091216;28;20210;-83
2020/12/27 09:06:19;;;;;;;1.87;1.77;;;2.20;99.90;;;;;;5090675;28;20255;-83
2020/12/27 09:08:45;;;;;;;2.03;1.80;;;2.20;99.90;;;;;;5091126;28;20445;-83
2020/12/27 09:11:11;;;;;;;1.87;1.60;;;2.20;99.90;;;;;;5090569;28;20236;-84
2020/12/27 09:13:39;;;;;;;1.70;1.60;;;2.20;99.90;;;;;;5090713;28;20207;-84
2020/12/27 09:16:06;;;;;;;1.83;1.73;;;2.20;99.90;;;;;;5089898;28;20225;-83
2020/12/27 09:18:36;;;;;;;2.37;1.53;;;2.30;99.90;;;;;;5090229;28;20297;-83
2020/12/27 09:21:03;;;;;;;3.60;1.77;;;2.20;99.90;;;;;;5090586;28;20684;-84
2020/12/27 09:23:30;;;;;;;2.07;1.83;;;2.30;99.90;;;;;;5090136;28;20208;-85
2020/12/27 09:26:07;;;;;;;2.00;1.80;;;2.20;99.90;;;;;;5090127;28;20328;-84
2020/12/27 09:28:36;;;;;;;6.00;1.90;;;2.20;99.90;;;;;;5090356;28;20206;-83
2020/12/27 09:31:06;;;;;;;1.63;1.53;;;2.30;99.90;;;;;;5090081;28;20696;-83
2020/12/27 09:33:36;;;;;;;1.63;1.53;;;2.30;99.90;;;;;;5090403;28;20305;-84
2020/12/27 09:36:05;;;;;;;1.83;1.73;;;2.30;99.90;;;;;;5090721;28;20256;-84
2020/12/27 09:38:34;;;;;;;3.83;1.60;;;2.20;99.90;;;;;;5090043;28;20203;-83
2020/12/27 09:41:05;;;;;;;1.80;1.57;;;2.30;99.90;;;;;;5089827;28;20681;-82
2020/12/27 09:43:32;;;;;;;2.90;1.23;;;2.30;99.90;;;;;;5089764;28;20679;-84
2020/12/27 09:45:58;;;;;;;1.90;1.70;;;2.30;99.90;;;;;;5090250;28;20199;-84
2020/12/27 09:48:31;;;;;;;2.03;1.90;;;2.30;99.90;;;;;;5089804;28;20419;-83
2020/12/27 09:51:13;;;;;;;2.20;2.00;;;2.30;99.90;;;;;;5089757;28;20219;-84
2020/12/27 09:53:40;;;;;;;2.70;1.90;;;2.30;99.90;;;;;;5089551;28;20230;-84
2020/12/27 09:56:06;;;;;;;2.97;1.70;;;2.30;99.90;;;;;;5089976;28;20211;-82
2020/12/27 09:58:32;;;;;;;2.10;2.00;;;2.30;99.90;;;;;;5089572;28;20263;-84
2020/12/27 10:00:59;;;;;;;1.97;1.87;;;2.30;99.90;;;;;;5087197;28;20293;-84
2020/12/27 10:03:25;;;;;;;2.13;1.67;;;2.40;99.90;;;;;;5104613;28;20198;-83
2020/12/27 10:05:51;;;;;;;1.90;1.80;;;2.40;99.90;;;;;;5110168;28;20208;-84
2020/12/27 10:08:19;;;;;;;2.43;2.00;;;2.40;99.90;;;;;;5109349;28;20212;-83
2020/12/27 10:10:45;;;;;;;1.70;1.60;;;2.40;99.90;;;;;;5109912;28;20229;-84
2020/12/27 10:13:11;;;;;;;1.90;1.80;;;2.40;99.90;;;;;;5109995;28;20201;-84
2020/12/27 10:15:37;;;;;;;1.83;1.70;;;2.40;99.90;;;;;;5109996;27;20222;-83
2020/12/27 10:18:04;;;;;;;2.00;1.80;;;2.50;99.90;;;;;;5110225;28;20274;-84
2020/12/27 10:20:30;;;;;;;3.17;1.93;;;2.50;99.90;;;;;;5110059;28;20424;-83
2020/12/27 10:22:56;;;;;;;1.80;1.70;;;2.40;99.90;;;;;;5109880;28;20227;-83
2020/12/27 10:25:24;;;;;;;2.00;1.80;;;2.50;99.90;;;;;;5109910;28;20293;-84
2020/12/27 10:27:50;;;;;;;2.20;2.00;;;2.50;99.90;;;;;;5109856;28;20212;-84
2020/12/27 10:30:16;;;;;;;3.20;1.90;;;2.50;99.90;;;;;;5109869;28;20324;-84
2020/12/27 10:32:42;;;;;;;2.73;2.43;;;2.50;99.90;;;;;;5109770;28;20210;-84
2020/12/27 10:35:09;;;;;;;2.70;2.00;;;2.40;99.90;;;;;;5109849;28;20617;-84
2020/12/27 10:37:35;;;;;;;2.37;2.17;;;2.40;99.90;;;;;;5109510;28;20198;-83
2020/12/27 10:40:01;;;;;;;3.43;2.23;;;2.40;99.90;;;;;;5109691;28;20756;-83
2020/12/27 10:42:29;;;;;;;2.37;2.17;;;2.40;99.90;;;;;;5109542;28;20201;-83
2020/12/27 10:44:55;;;;;;;3.37;2.20;;;2.40;99.90;;;;;;5109549;28;20314;-84
2020/12/27 10:47:21;;;;;;;2.27;2.10;;;2.40;99.90;;;;;;5109460;28;20206;-84
2020/12/27 10:49:47;;;;;;;2.10;2.00;;;2.40;99.90;;;;;;5109749;28;20577;-82
2020/12/27 10:52:14;;;;;;;2.20;2.00;;;2.40;99.90;;;;;;5109266;28;20206;-83
2020/12/27 10:54:40;;;;;;;1.90;1.80;;;2.40;99.90;;;;;;5109412;28;20234;-83
2020/12/27 10:57:08;;;;;;;3.30;2.20;;;2.40;99.90;;;;;;5109766;28;20574;-84
2020/12/27 10:59:35;;;;;;;1.93;1.80;;;2.40;99.90;;;;;;5108883;28;20216;-84
2020/12/27 11:02:01;;;;;;;2.23;1.83;;;2.40;99.90;;;;;;5109119;28;20560;-83
2020/12/27 11:04:28;;;;;;;2.30;2.10;;;2.40;99.90;;;;;;5109303;28;20735;-84
2020/12/27 11:06:54;;;;;;;3.73;2.27;;;2.50;99.90;;;;;;5109265;28;20206;-85
2020/12/27 11:09:20;;;;;;;2.07;1.97;;;2.40;99.90;;;;;;5109036;28;20229;-83
2020/12/27 11:11:47;;;;;;;2.00;1.90;;;2.50;99.90;;;;;;5109163;28;20210;-84
2020/12/27 11:14:13;;;;;;;2.23;2.03;;;2.50;99.90;;;;;;5109255;28;20206;-83
2020/12/27 11:16:40;;;;;;;2.57;2.37;;;2.40;99.90;;;;;;5109470;28;20305;-83
2020/12/27 11:19:07;;;;;;;2.07;1.97;;;2.40;99.90;;;;;;5109828;28;20693;-83
2020/12/27 11:21:33;;;;;;;2.07;1.93;;;2.40;99.90;;;;;;5113106;28;20206;-83
2020/12/27 11:23:59;;;;;;;2.53;2.00;;;2.40;99.90;;;;;;5113253;28;20292;-83
2020/12/27 11:26:26;;;;;;;1.67;1.57;;;2.40;99.90;;;;;;5112919;28;20286;-83
2020/12/27 11:28:52;;;;;;;2.07;1.97;;;2.40;99.90;;;;;;5113099;27;20206;-85
2020/12/27 11:31:19;;;;;;;1.97;1.87;;;2.40;99.90;;;;;;5112768;28;20271;-83
2020/12/27 11:33:47;;;;;;;1.73;1.63;;;2.40;99.90;;;;;;5112771;28;20209;-82
2020/12/27 11:36:14;;;;;;;1.87;1.73;;;2.40;99.90;;;;;;5113035;28;20206;-82
2020/12/27 11:38:40;;;;;;;2.60;1.70;;;2.40;99.90;;;;;;5112879;28;20212;-85
2020/12/27 11:41:07;;;;;;;2.43;2.00;;;2.40;99.90;;;;;;5113035;28;20606;-82
2020/12/27 11:43:33;;;;;;;6.17;1.77;;;2.40;99.90;;;;;;5112884;28;20212;-84
2020/12/27 11:45:59;;;;;;;1.90;1.80;;;2.40;99.90;;;;;;5113016;28;20212;-84
2020/12/27 11:48:26;;;;;;;1.80;1.70;;;2.40;99.90;;;;;;5112917;28;20209;-83
2020/12/27 11:50:53;;;;;;;3.73;2.03;;;2.50;99.90;;;;;;5112340;28;20275;-83
2020/12/27 11:53:20;;;;;;;2.37;1.83;;;2.50;99.90;;;;;;5112191;28;20243;-84
2020/12/27 11:55:46;;;;;;;2.30;1.80;;;2.50;99.90;;;;;;5112279;28;20262;-83
2020/12/27 11:58:12;;;;;;;2.07;1.70;;;2.50;99.90;;;;;;5112158;28;20210;-83
2020/12/27 12:00:39;;;;;;;3.07;1.77;;;2.50;99.90;;;;;;5112011;28;20304;-83
2020/12/27 12:03:05;;;;;;;1.97;1.87;;;2.50;99.90;;;;;;5112215;28;20282;-83
2020/12/27 12:05:31;;;;;;;2.33;1.67;;;2.50;99.90;;;;;;5111927;28;20258;-84
2020/12/27 12:07:59;;;;;;;2.33;1.80;;;2.50;99.90;;;;;;5112076;28;20204;-84
2020/12/27 12:10:25;;;;;;;2.30;1.53;;;2.60;99.90;;;;;;5112145;27;20230;-84
2020/12/27 12:12:51;;;;;;;2.23;1.80;;;2.50;99.90;;;;;;5111836;28;20705;-83
2020/12/27 12:15:18;;;;;;;1.57;1.53;;;2.50;99.90;;;;;;5111879;28;20722;-82
2020/12/27 12:17:44;;;;;;;1.70;1.60;;;2.50;99.90;;;;;;5111763;28;20292;-83
2020/12/27 12:20:42;;;;;;;1.50;1.40;;;2.50;99.90;;;;;;5111797;28;20347;-83
2020/12/27 12:22:57;;;;;;;2.10;2.00;;;2.50;99.90;;;;;;5111381;28;20210;-83
2020/12/27 12:25:24;;;;;;;1.50;1.40;;;2.50;99.90;;;;;;5111438;27;20208;-83
2020/12/27 12:27:51;;;;;;;1.77;1.67;;;2.60;99.90;;;;;;5111432;28;20309;-84
2020/12/27 12:30:17;;;;;;;1.70;1.60;;;2.60;99.90;;;;;;5110835;28;20230;-83
2020/12/27 12:32:43;;;;;;;1.80;1.70;;;2.60;99.90;;;;;;5111705;28;20213;-84
2020/12/27 12:35:10;;;;;;;4.13;1.37;;;2.60;99.90;;;;;;5111826;28;20292;-85
2020/12/27 12:37:37;;;;;;;1.57;1.47;;;2.60;99.90;;;;;;5111629;28;20216;-86
2020/12/27 12:40:05;;;;;;;1.13;1.13;;;2.60;99.90;;;;;;5111494;28;20202;-83
2020/12/27 12:42:36;;;;;;;1.27;1.20;;;2.60;99.90;;;;;;5111464;28;20214;-84
2020/12/27 12:45:04;;;;;;;1.50;1.40;;;2.60;99.90;;;;;;5111717;27;20277;-83
2020/12/27 12:47:30;;;;;;;1.30;1.20;;;2.60;99.90;;;;;;5111439;28;20300;-83
2020/12/27 12:49:57;;;;;;;1.10;1.10;;;2.60;99.90;;;;;;5111314;28;20271;-83
2020/12/27 12:52:23;;;;;;;1.27;1.17;;;2.70;99.90;;;;;;5111059;28;20293;-82
2020/12/27 12:54:50;;;;;;;1.10;1.00;;;2.70;99.90;;;;;;5110826;28;20614;-83
2020/12/27 12:57:16;;;;;;;1.30;1.20;;;2.70;99.90;;;;;;5112056;28;20347;-83
2020/12/27 12:59:43;;;;;;;2.90;1.23;;;2.70;99.90;;;;;;5110903;28;20259;-84
2020/12/27 13:02:10;;;;;;;0.93;0.93;;;2.70;99.90;;;;;;5111256;28;20262;-83